Time;durP1;ratioP1;P1;durP2;ratioP2;P2;SDS_P1;SDS_P2;PMS_P1;PMS_P2;Temp;Humidity;BMP_temperature;BMP_pressure;BME280_temperature;BME280_humidity;BME280_pressure;Samples;Min_cycle;Max_cycle;Signal;HPM_P1;HPM_P2
2023/04/18 01:20:34;;;;;;;4.20;3.50;;;;;;;;;;5071045;28;20055;-33
2023/04/18 01:23:01;;;;;;;5.47;3.83;;;;;;;;;;5071639;28;20501;-30
2023/04/18 01:25:29;;;;;;;5.05;3.58;;;18.60;50.00;;;;;;5054182;28;20057;-34
2023/04/18 01:27:57;;;;;;;5.35;3.88;;;;;;;;;;5052914;28;20494;-35
2023/04/18 01:30:24;;;;;;;4.75;3.70;;;;;;;;;;5052789;28;20541;-30
2023/04/18 01:32:51;;;;;;;4.53;3.35;;;18.60;60.80;;;;;;5052581;28;20513;-30
2023/04/18 01:35:18;;;;;;;3.90;3.13;;;;;;;;;;5052904;28;20049;-30
2023/04/18 01:37:45;;;;;;;4.30;3.90;;;19.00;66.40;;;;;;5059941;28;20051;-31
2023/04/18 01:40:12;;;;;;;4.47;3.50;;;;;;;;;;5052543;28;20055;-30
2023/04/18 01:42:40;;;;;;;4.60;3.80;;;;;;;;;;5052618;28;20055;-31
2023/04/18 01:45:07;;;;;;;4.35;3.53;;;18.10;76.60;;;;;;5052915;28;20049;-30
2023/04/18 01:47:34;;;;;;;4.88;3.85;;;;;;;;;;5052734;28;20049;-30
2023/04/18 01:50:02;;;;;;;4.45;3.60;;;18.60;49.80;;;;;;5052412;28;20053;-30
2023/04/18 01:52:29;;;;;;;4.90;3.47;;;;;;;;;;5052391;28;20041;-30
2023/04/18 01:54:56;;;;;;;4.20;3.65;;;18.40;76.70;;;;;;5052561;28;20045;-30
2023/04/18 01:57:23;;;;;;;4.88;3.63;;;;;;;;;;5068450;28;20052;-30
2023/04/18 01:59:51;;;;;;;4.28;3.58;;;19.10;52.90;;;;;;5072393;28;20055;-30
2023/04/18 02:02:18;;;;;;;4.50;3.80;;;18.80;76.40;;;;;;5069356;28;20524;-30
2023/04/18 02:04:45;;;;;;;5.18;4.13;;;;;;;;;;5052327;28;20044;-30
2023/04/18 02:07:12;;;;;;;4.45;3.88;;;17.70;63.70;;;;;;5052753;28;20413;-31
2023/04/18 02:09:38;;;;;;;4.18;3.67;;;19.80;77.20;;;;;;5052417;28;20051;-30
2023/04/18 02:12:05;;;;;;;5.55;3.65;;;;;;;;;;5051911;28;20135;-32
2023/04/18 02:14:33;;;;;;;3.90;3.50;;;;;;;;;;5052068;28;20045;-30
2023/04/18 02:17:02;;;;;;;4.07;3.67;;;;;;;;;;5064171;28;20135;-32
2023/04/18 02:19:30;;;;;;;4.57;3.67;;;;;;;;;;5072496;28;20048;-30
2023/04/18 02:21:56;;;;;;;4.85;3.78;;;19.10;77.10;;;;;;5071863;28;20493;-30
2023/04/18 02:24:23;;;;;;;3.75;3.20;;;18.40;69.80;;;;;;5072016;28;20059;-30
2023/04/18 02:26:50;;;;;;;4.80;3.75;;;;;;;;;;5072002;28;20049;-33
2023/04/18 02:29:17;;;;;;;4.53;3.55;;;18.60;76.50;;;;;;5069524;28;20409;-30
2023/04/18 02:31:44;;;;;;;4.63;3.55;;;;;;;;;;5052015;28;20055;-30
2023/04/18 02:34:12;;;;;;;4.85;3.60;;;18.50;49.70;;;;;;5051624;28;20103;-30
2023/04/18 02:36:39;;;;;;;4.43;3.50;;;18.10;76.60;;;;;;5058851;28;20052;-31
2023/04/18 02:39:06;;;;;;;4.03;3.50;;;;;;;;;;5071723;28;20048;-31
2023/04/18 02:41:36;;;;;;;4.28;3.63;;;;;;;;;;5071874;28;20059;-33
2023/04/18 02:44:03;;;;;;;4.05;3.55;;;18.60;59.10;;;;;;5058548;28;20053;-31
2023/04/18 02:46:29;;;;;;;4.20;3.50;;;18.30;76.70;;;;;;5051971;28;20052;-30
2023/04/18 02:48:56;;;;;;;4.07;3.35;;;;;;;;;;5051831;28;20174;-30
2023/04/18 02:51:25;;;;;;;5.50;4.00;;;;;;;;;;5051830;28;20071;-31
2023/04/18 02:53:53;;;;;;;4.75;3.83;;;;;;;;;;5051486;28;20399;-30
2023/04/18 02:56:21;;;;;;;3.38;3.05;;;;;;;;;;5056437;28;20045;-30
2023/04/18 02:58:48;;;;;;;4.85;3.90;;;;;;;;;;5051594;28;20131;-30
2023/04/18 03:01:15;;;;;;;5.18;3.75;;;;;;;;;;5051857;28;20395;-30
2023/04/18 03:03:42;;;;;;;4.22;3.25;;;17.90;76.60;;;;;;5051125;28;20045;-30
2023/04/18 03:06:08;;;;;;;4.03;3.38;;;18.30;76.60;;;;;;5051385;28;20056;-30
2023/04/18 03:08:36;;;;;;;4.07;3.67;;;19.20;50.10;;;;;;5051735;28;20428;-34
2023/04/18 03:11:04;;;;;;;3.55;3.20;;;;;;;;;;5052936;28;20053;-34
2023/04/18 03:13:31;;;;;;;3.70;3.08;;;;;;;;;;5071279;28;20052;-30
2023/04/18 03:15:58;;;;;;;3.88;3.45;;;18.10;53.60;;;;;;5071693;28;20051;-32
2023/04/18 03:18:25;;;;;;;4.25;3.42;;;;;;;;;;5067705;28;20045;-30
2023/04/18 03:20:52;;;;;;;3.60;3.20;;;;;;;;;;5051361;28;20052;-30
2023/04/18 03:23:19;;;;;;;4.60;3.63;;;;;;;;;;5051265;28;20049;-30
2023/04/18 03:25:47;;;;;;;4.40;3.30;;;18.20;49.50;;;;;;5051294;28;20041;-32
2023/04/18 03:28:14;;;;;;;4.75;3.55;;;;;;;;;;5051482;28;20052;-29
2023/04/18 03:30:41;;;;;;;5.05;3.75;;;18.00;55.60;;;;;;5051653;28;20445;-30
2023/04/18 03:33:08;;;;;;;3.90;3.13;;;;;;;;;;5050961;28;20103;-34
2023/04/18 03:35:35;;;;;;;4.60;3.30;;;18.20;76.80;;;;;;5051510;28;20128;-30
2023/04/18 03:38:02;;;;;;;3.42;3.00;;;;;;;;;;5057244;28;20053;-30
2023/04/18 03:40:29;;;;;;;4.75;3.70;;;18.40;76.90;;;;;;5051441;28;20409;-31
2023/04/18 03:42:58;;;;;;;4.45;3.47;;;;;;;;;;5051154;28;20136;-30
2023/04/18 03:45:25;;;;;;;4.05;3.05;;;18.60;51.40;;;;;;5051015;28;20045;-30
2023/04/18 03:47:52;;;;;;;4.30;3.45;;;;;;;;;;5054053;28;20052;-30
2023/04/18 03:50:19;;;;;;;3.65;2.95;;;;;;;;;;5054983;28;20067;-31
2023/04/18 03:52:46;;;;;;;3.83;3.47;;;18.10;68.70;;;;;;5054533;28;20128;-30
2023/04/18 03:55:13;;;;;;;3.90;3.28;;;;;;;;;;5054689;28;20490;-35
2023/04/18 03:57:40;;;;;;;4.47;3.70;;;;;;;;;;5073048;28;20424;-30
2023/04/18 04:00:09;;;;;;;3.35;2.97;;;18.20;49.50;;;;;;5074815;28;20507;-34
2023/04/18 04:02:37;;;;;;;4.70;3.25;;;;;;;;;;5074253;28;20102;-30
2023/04/18 04:05:04;;;;;;;3.65;3.17;;;18.30;73.00;;;;;;5062368;28;20055;-30
2023/04/18 04:07:31;;;;;;;3.72;3.20;;;;;;;;;;5057780;28;20052;-30
2023/04/18 04:09:58;;;;;;;3.65;3.25;;;18.50;76.60;;;;;;5074802;28;20080;-30
2023/04/18 04:12:25;;;;;;;3.75;3.30;;;;;;;;;;5073986;28;20048;-30
2023/04/18 04:14:52;;;;;;;5.20;3.20;;;;;;;;;;5074681;28;20050;-30
2023/04/18 04:17:20;;;;;;;3.90;3.20;;;18.20;49.50;;;;;;5072403;28;20705;-30
2023/04/18 04:19:47;;;;;;;3.92;3.28;;;;;;;;;;5054394;28;20558;-32
2023/04/18 04:22:15;;;;;;;3.35;3.00;;;;;;;;;;5054021;28;20498;-30
2023/04/18 04:24:42;;;;;;;3.90;3.17;;;;;;;;;;5054077;28;20048;-34
2023/04/18 04:27:11;;;;;;;4.35;3.17;;;;;;;;;;5054276;28;20091;-30
2023/04/18 04:29:38;;;;;;;3.20;2.90;;;;;;;;;;5054226;28;20051;-34
2023/04/18 04:32:05;;;;;;;3.85;3.30;;;16.90;75.80;;;;;;5054278;28;20064;-30
2023/04/18 04:34:34;;;;;;;3.25;2.95;;;;;;;;;;5054122;28;20051;-36
2023/04/18 04:37:01;;;;;;;3.47;3.03;;;;;;;;;;5063913;28;20044;-30
2023/04/18 04:39:28;;;;;;;3.85;3.10;;;;;;;;;;5074035;28;20048;-34
2023/04/18 04:41:56;;;;;;;3.60;2.85;;;18.10;76.90;;;;;;5074117;28;20048;-30
2023/04/18 04:44:25;;;;;;;4.85;3.60;;;18.30;76.60;;;;;;5071519;28;20091;-30
2023/04/18 04:46:53;;;;;;;4.25;3.20;;;;;;;;;;5053914;28;20114;-30
2023/04/18 04:49:20;;;;;;;3.55;2.83;;;17.70;76.90;;;;;;5053793;28;20107;-30
2023/04/18 04:51:48;;;;;;;3.78;2.97;;;18.00;49.60;;;;;;5053710;28;20490;-33
2023/04/18 04:54:15;;;;;;;3.85;2.90;;;;;;;;;;5053780;28;20135;-35
2023/04/18 04:56:42;;;;;;;4.05;3.35;;;;;;;;;;5064069;28;20063;-30
2023/04/18 04:59:09;;;;;;;3.33;3.03;;;;;;;;;;5061242;28;20059;-34
2023/04/18 05:01:35;;;;;;;3.97;2.90;;;18.20;58.00;;;;;;5053371;28;20070;-30
2023/04/18 05:04:02;;;;;;;4.38;2.90;;;;;;;;;;5059134;28;20055;-30
2023/04/18 05:06:30;;;;;;;3.40;3.00;;;18.40;66.10;;;;;;5064775;28;20059;-33
2023/04/18 05:08:59;;;;;;;5.38;3.33;;;17.90;49.60;;;;;;5073603;28;20482;-30
2023/04/18 05:11:26;;;;;;;3.60;2.83;;;18.00;77.10;;;;;;5064671;28;20474;-30
2023/04/18 05:13:53;;;;;;;3.58;2.88;;;;;;;;;;5061354;28;20041;-34
2023/04/18 05:16:20;;;;;;;3.20;2.75;;;19.20;77.30;;;;;;5062903;28;20047;-30
2023/04/18 05:18:47;;;;;;;3.80;3.17;;;;;;;;;;5064120;28;20420;-32
2023/04/18 05:21:13;;;;;;;3.80;3.03;;;17.60;56.50;;;;;;5062171;28;20512;-32
2023/04/18 05:23:40;;;;;;;3.00;2.70;;;17.90;76.70;;;;;;5062509;28;20051;-31
2023/04/18 05:26:08;;;;;;;3.10;2.80;;;17.80;49.50;;;;;;5062028;28;20044;-30
2023/04/18 05:28:35;;;;;;;4.07;3.15;;;;;;;;;;5064387;28;20055;-30
2023/04/18 05:31:02;;;;;;;3.60;2.90;;;18.10;73.70;;;;;;5061904;28;20041;-30
2023/04/18 05:33:29;;;;;;;3.47;3.08;;;;;;;;;;5063806;28;20047;-30
2023/04/18 05:35:56;;;;;;;5.45;3.28;;;17.80;59.60;;;;;;5061762;28;20047;-31
2023/04/18 05:38:23;;;;;;;4.47;3.40;;;;;;;;;;5061912;28;20383;-30
2023/04/18 05:40:50;;;;;;;4.43;3.20;;;;;;;;;;5061575;28;20510;-34
2023/04/18 05:43:19;;;;;;;3.78;2.90;;;17.90;49.80;;;;;;5061622;28;20150;-30
2023/04/18 05:45:46;;;;;;;3.40;2.90;;;;;;;;;;5063103;28;20079;-30
2023/04/18 05:48:13;;;;;;;3.63;3.00;;;;;;;;;;5061566;28;20051;-30
2023/04/18 05:50:40;;;;;;;4.65;3.08;;;;;;;;;;5062631;28;20048;-30
2023/04/18 05:53:07;;;;;;;3.85;3.30;;;19.00;78.00;;;;;;5062934;28;20045;-30
2023/04/18 05:55:34;;;;;;;4.32;3.08;;;;;;;;;;5061222;28;20051;-30
2023/04/18 05:58:01;;;;;;;3.90;2.90;;;;;;;;;;5063016;28;20040;-30
2023/04/18 06:00:30;;;;;;;3.28;2.97;;;;;;;;;;5063171;28;20127;-31
2023/04/18 06:02:57;;;;;;;3.17;2.72;;;;;;;;;;5063294;28;20091;-32
2023/04/18 06:05:24;;;;;;;3.72;2.88;;;18.30;77.20;;;;;;5062347;28;20047;-30
2023/04/18 06:07:51;;;;;;;3.20;2.83;;;;;;;;;;5062555;28;20119;-31
2023/04/18 06:10:18;;;;;;;4.70;2.83;;;;;;;;;;5060940;28;20044;-31
2023/04/18 06:12:45;;;;;;;4.97;2.63;;;;;;;;;;5051602;28;20041;-30
2023/04/18 06:15:11;;;;;;;5.00;2.83;;;18.80;76.90;;;;;;5051832;28;20044;-31
2023/04/18 06:17:39;;;;;;;3.33;2.63;;;18.60;49.50;;;;;;5051793;28;20515;-30
2023/04/18 06:20:07;;;;;;;3.92;2.90;;;;;;;;;;5052004;28;20041;-30
2023/04/18 06:22:34;;;;;;;3.55;2.60;;;19.20;76.10;;;;;;5051917;28;20417;-30
2023/04/18 06:25:01;;;;;;;4.03;2.58;;;;;;;;;;5051931;28;20509;-30
2023/04/18 06:27:27;;;;;;;2.90;2.60;;;19.50;62.10;;;;;;5051839;28;20053;-30
2023/04/18 06:29:54;;;;;;;3.33;2.70;;;18.90;75.30;;;;;;5052062;28;20429;-30
2023/04/18 06:32:21;;;;;;;3.75;2.55;;;;;;;;;;5051222;28;20063;-30
2023/04/18 06:34:49;;;;;;;2.90;2.45;;;;;;;;;;5052133;28;20052;-30
2023/04/18 06:37:17;;;;;;;4.47;2.75;;;18.80;74.70;;;;;;5063854;28;20105;-30
2023/04/18 06:39:44;;;;;;;4.18;2.53;;;;;;;;;;5071910;28;20502;-33
2023/04/18 06:42:11;;;;;;;3.95;3.10;;;;;;;;;;5061455;28;20128;-30
2023/04/18 06:44:38;;;;;;;2.90;2.50;;;;;;;;;;5052193;28;20044;-30
2023/04/18 06:47:06;;;;;;;3.63;2.38;;;;;;;;;;5051792;28;20045;-30
2023/04/18 06:49:32;;;;;;;3.13;2.53;;;18.80;74.20;;;;;;5051558;28;20413;-30
2023/04/18 06:52:00;;;;;;;3.33;2.75;;;20.00;48.00;;;;;;5051903;28;20059;-30
2023/04/18 06:54:27;;;;;;;4.18;2.70;;;20.00;52.90;;;;;;5051636;28;20057;-32
2023/04/18 06:56:54;;;;;;;3.75;2.53;;;;;;;;;;5063432;28;20646;-30
2023/04/18 06:59:22;;;;;;;4.88;2.72;;;20.20;74.50;;;;;;5065647;28;20060;-30
2023/04/18 07:01:49;;;;;;;4.00;2.15;;;20.60;54.10;;;;;;5061074;28;20048;-32
2023/04/18 07:04:16;;;;;;;2.60;2.33;;;;;;;;;;5061969;28;20048;-30
2023/04/18 07:06:43;;;;;;;3.05;2.38;;;;;;;;;;5060884;28;20041;-30
2023/04/18 07:09:12;;;;;;;3.65;2.50;;;;;;;;;;5060794;28;20047;-31
2023/04/18 07:11:39;;;;;;;2.92;2.33;;;;;;;;;;5057050;28;20049;-31
2023/04/18 07:14:06;;;;;;;3.10;2.42;;;20.20;57.00;;;;;;5068394;28;20131;-31
2023/04/18 07:16:33;;;;;;;2.80;2.30;;;;;;;;;;5070839;28;20417;-34
2023/04/18 07:19:00;;;;;;;3.13;2.42;;;;;;;;;;5069665;28;20049;-30
2023/04/18 07:21:27;;;;;;;3.00;2.42;;;;;;;;;;5071288;28;20052;-34
2023/04/18 07:23:54;;;;;;;2.90;2.40;;;20.80;73.60;;;;;;5074150;28;20048;-30
2023/04/18 07:26:22;;;;;;;2.80;2.45;;;;;;;;;;5074517;28;20083;-30
2023/04/18 07:28:49;;;;;;;2.78;2.40;;;;;;;;;;5074327;28;20059;-30
2023/04/18 07:31:18;;;;;;;2.97;2.35;;;21.60;65.80;;;;;;5064950;28;20060;-30
2023/04/18 07:33:45;;;;;;;2.42;2.22;;;;;;;;;;5064002;28;20048;-34
2023/04/18 07:36:12;;;;;;;4.60;2.50;;;20.80;62.40;;;;;;5066968;28;20045;-30
2023/04/18 07:38:39;;;;;;;2.50;2.20;;;;;;;;;;5057201;28;20055;-30
2023/04/18 07:41:06;;;;;;;3.83;2.40;;;;;;;;;;5053167;28;20135;-34
2023/04/18 07:43:34;;;;;;;2.10;1.90;;;21.10;46.70;;;;;;5053200;28;20049;-30
2023/04/18 07:46:00;;;;;;;2.55;2.30;;;21.20;72.90;;;;;;5053576;28;20595;-30
2023/04/18 07:48:27;;;;;;;2.97;2.30;;;;;;;;;;5054099;28;20075;-30
2023/04/18 07:50:54;;;;;;;2.60;2.25;;;21.50;72.60;;;;;;5054464;28;20383;-30
2023/04/18 07:53:21;;;;;;;3.03;2.30;;;21.10;55.70;;;;;;5063989;28;20048;-30
2023/04/18 07:55:48;;;;;;;2.30;1.98;;;;;;;;;;5073999;28;20053;-30
2023/04/18 07:58:15;;;;;;;3.13;2.28;;;;;;;;;;5074209;28;20049;-31
2023/04/18 08:00:43;;;;;;;2.50;2.17;;;21.20;46.40;;;;;;5073639;28;20052;-31
2023/04/18 08:03:11;;;;;;;4.05;2.20;;;;;;;;;;5073594;28;20457;-34
2023/04/18 08:05:38;;;;;;;2.63;2.10;;;;;;;;;;5073727;28;20055;-30
2023/04/18 08:08:05;;;;;;;2.45;2.08;;;21.30;59.60;;;;;;5055814;28;20512;-31
2023/04/18 08:10:32;;;;;;;2.45;2.10;;;;;;;;;;5053456;28;20149;-30
2023/04/18 08:12:59;;;;;;;2.42;2.03;;;21.50;72.70;;;;;;5053364;28;20055;-30
2023/04/18 08:15:27;;;;;;;2.30;2.03;;;;;;;;;;5053522;28;20465;-30
2023/04/18 08:17:55;;;;;;;2.42;2.00;;;21.30;46.50;;;;;;5053778;28;20118;-30
2023/04/18 08:20:23;;;;;;;4.30;2.15;;;;;;;;;;5060219;28;20425;-31
2023/04/18 08:22:50;;;;;;;3.25;2.40;;;21.20;72.30;;;;;;5061831;28;20041;-30
2023/04/18 08:25:17;;;;;;;2.45;2.25;;;;;;;;;;5063889;28;20126;-30
2023/04/18 08:27:44;;;;;;;2.88;2.10;;;;;;;;;;5060310;28;20049;-32
2023/04/18 08:30:12;;;;;;;2.58;2.10;;;;;;;;;;5063569;28;20048;-35
2023/04/18 08:32:39;;;;;;;2.58;1.85;;;;;;;;;;5063665;28;20468;-32
2023/04/18 08:35:07;;;;;;;2.10;1.90;;;;;;;;;;5064182;28;20047;-31
2023/04/18 08:37:35;;;;;;;2.58;1.95;;;21.70;56.10;;;;;;5060772;28;20044;-31
2023/04/18 08:40:02;;;;;;;2.70;2.00;;;;;;;;;;5061147;28;20048;-34
2023/04/18 08:42:29;;;;;;;2.33;2.00;;;20.80;72.10;;;;;;5052745;28;20124;-30
2023/04/18 08:44:56;;;;;;;2.55;2.00;;;;;;;;;;5053168;28;20055;-34
2023/04/18 08:47:24;;;;;;;2.47;2.17;;;;;;;;;;5052948;28;20390;-31
2023/04/18 08:49:52;;;;;;;2.58;2.10;;;21.00;72.30;;;;;;5064880;28;20098;-30
2023/04/18 08:52:21;;;;;;;2.30;1.90;;;;;;;;;;5072690;28;20048;-30
2023/04/18 08:54:49;;;;;;;2.17;1.90;;;21.60;54.30;;;;;;5072702;28;20106;-31
2023/04/18 08:57:22;;;;;;;3.67;2.00;;;;;;;;;;5070436;28;20076;-32
2023/04/18 08:59:49;;;;;;;2.58;1.95;;;22.20;72.60;;;;;;5057557;28;20391;-32
2023/04/18 09:02:16;;;;;;;2.97;1.85;;;;;;;;;;5052279;28;20052;-29
2023/04/18 09:04:44;;;;;;;2.40;2.10;;;21.30;46.40;;;;;;5071101;28;20070;-31
2023/04/18 09:07:12;;;;;;;2.60;2.00;;;;;;;;;;5072454;28;20051;-29
2023/04/18 09:09:47;;;;;;;2.20;2.00;;;;;;;;;;5072731;28;20044;-30
2023/04/18 09:12:16;;;;;;;2.97;2.28;;;;;;;;;;5072455;28;20094;-30
2023/04/18 09:14:44;;;;;;;2.55;1.80;;;21.30;72.10;;;;;;5072391;28;20094;-29
2023/04/18 09:17:11;;;;;;;2.20;1.98;;;21.30;52.40;;;;;;5072142;28;20053;-33
2023/04/18 09:19:38;;;;;;;3.08;2.10;;;;;;;;;;5071687;28;20430;-31
2023/04/18 09:22:07;;;;;;;2.53;1.92;;;20.50;72.40;;;;;;5061982;28;20471;-29
2023/04/18 09:24:34;;;;;;;2.15;1.92;;;;;;;;;;5062516;28;20055;-31
2023/04/18 09:27:02;;;;;;;3.75;1.90;;;21.70;46.40;;;;;;5051889;28;20051;-36
2023/04/18 09:29:42;;;;;;;3.35;1.90;;;;;;;;;;5052400;28;20098;-30
2023/04/18 09:32:09;;;;;;;2.40;2.10;;;;;;;;;;5051690;28;20417;-34
2023/04/18 09:34:37;;;;;;;3.10;1.90;;;20.30;71.60;;;;;;5051763;28;20382;-29
2023/04/18 09:37:07;;;;;;;2.33;2.00;;;;;;;;;;5059753;28;20440;-33
2023/04/18 09:39:34;;;;;;;5.18;2.28;;;;;;;;;;5062505;28;20050;-30
2023/04/18 09:42:02;;;;;;;2.20;1.90;;;21.40;46.00;;;;;;5058907;28;20131;-37
2023/04/18 09:44:29;;;;;;;2.88;2.33;;;;;;;;;;5056920;28;20057;-35
2023/04/18 09:46:56;;;;;;;2.75;2.05;;;;;;;;;;5062688;28;20044;-30
2023/04/18 09:49:24;;;;;;;2.70;2.00;;;;;;;;;;5071252;28;20052;-35
2023/04/18 09:51:51;;;;;;;2.97;2.55;;;;;;;;;;5071973;28;20059;-30
2023/04/18 09:54:19;;;;;;;2.78;1.90;;;;;;;;;;5068271;28;20049;-30
2023/04/18 09:56:46;;;;;;;2.35;1.90;;;21.40;51.00;;;;;;5066236;28;20048;-32
2023/04/18 09:59:16;;;;;;;2.78;1.92;;;;;;;;;;5067503;28;20049;-31
2023/04/18 10:01:46;;;;;;;2.75;1.85;;;21.50;71.60;;;;;;5060870;28;20056;-30
2023/04/18 10:04:12;;;;;;;2.45;1.90;;;21.70;71.90;;;;;;5059998;28;20053;-29
2023/04/18 10:06:40;;;;;;;2.40;2.10;;;;;;;;;;5062151;28;20043;-36
2023/04/18 10:09:08;;;;;;;2.55;1.98;;;;;;;;;;5061285;28;20056;-31
2023/04/18 10:11:36;;;;;;;2.70;1.90;;;;;;;;;;5062666;28;20052;-31
2023/04/18 10:14:03;;;;;;;2.53;2.03;;;;;;;;;;5062664;28;20047;-35
2023/04/18 10:16:31;;;;;;;2.33;2.00;;;21.60;45.70;;;;;;5058300;28;20041;-35
2023/04/18 10:18:58;;;;;;;2.38;2.10;;;21.70;69.30;;;;;;5062823;28;20416;-31
2023/04/18 10:21:26;;;;;;;2.45;1.73;;;;;;;;;;5057188;28;20107;-36
2023/04/18 10:23:53;;;;;;;2.58;1.90;;;;;;;;;;5050199;28;20079;-33
2023/04/18 10:26:20;;;;;;;2.22;1.80;;;;;;;;;;5051141;28;20401;-30
2023/04/18 10:28:49;;;;;;;2.22;1.70;;;;;;;;;;5067987;28;20688;-32
2023/04/18 10:31:17;;;;;;;2.63;2.00;;;;;;;;;;5067293;28;20049;-31
2023/04/18 10:33:47;;;;;;;3.05;1.80;;;;;;;;;;5061983;28;20080;-30
2023/04/18 10:36:15;;;;;;;2.40;2.00;;;;;;;;;;5059507;28;20045;-31
2023/04/18 10:38:46;;;;;;;2.47;2.10;;;;;;;;;;5061629;28;20048;-30
2023/04/18 10:41:13;;;;;;;2.83;2.00;;;;;;;;;;5059213;28;20523;-31
2023/04/18 10:43:55;;;;;;;3.60;2.40;;;;;;;;;;5060696;28;20052;-31
2023/04/18 10:46:22;;;;;;;2.20;1.90;;;23.20;57.60;;;;;;5063823;28;20041;-32
2023/04/18 10:48:52;;;;;;;3.88;2.30;;;;;;;;;;5060258;28;20040;-33
2023/04/18 10:51:19;;;;;;;2.85;2.20;;;;;;;;;;5069939;28;20054;-31
2023/04/18 10:53:50;;;;;;;3.38;2.30;;;;;;;;;;5063462;28;20045;-31
2023/04/18 10:56:17;;;;;;;3.42;2.22;;;;;;;;;;5055493;28;20527;-30
2023/04/18 10:58:50;;;;;;;2.90;2.13;;;21.20;72.10;;;;;;5050011;28;20506;-31
2023/04/18 11:01:19;;;;;;;2.90;2.30;;;22.90;72.20;;;;;;5050785;28;20055;-31
2023/04/18 11:03:46;;;;;;;2.85;1.92;;;;;;;;;;5050680;28;20061;-37
2023/04/18 11:06:14;;;;;;;2.88;1.90;;;21.70;45.90;;;;;;5050780;28;20486;-30
2023/04/18 11:08:40;;;;;;;2.30;2.05;;;21.70;70.90;;;;;;5050780;28;20045;-32
2023/04/18 11:11:10;;;;;;;2.83;2.10;;;;;;;;;;5068530;28;20048;-30
2023/04/18 11:13:37;;;;;;;2.40;2.10;;;;;;;;;;5059122;28;20051;-31
2023/04/18 11:16:04;;;;;;;2.90;2.30;;;;;;;;;;5058308;28;20102;-30
2023/04/18 11:18:40;;;;;;;3.50;2.22;;;;;;;;;;5053596;28;20044;-31
2023/04/18 11:21:07;;;;;;;3.95;2.30;;;21.40;71.90;;;;;;5050710;28;20049;-31
2023/04/18 11:23:35;;;;;;;3.53;2.10;;;21.60;45.90;;;;;;5050386;28;20124;-34
2023/04/18 11:26:03;;;;;;;3.05;2.13;;;;;;;;;;5050382;28;20048;-33
2023/04/18 11:28:29;;;;;;;3.53;1.92;;;21.20;71.50;;;;;;5050392;28;20053;-32
2023/04/18 11:30:57;;;;;;;2.72;2.20;;;21.60;46.00;;;;;;5050636;28;20052;-30
2023/04/18 11:33:27;;;;;;;3.88;2.40;;;;;;;;;;5068584;28;20055;-31
2023/04/18 11:35:57;;;;;;;2.15;1.85;;;21.60;46.00;;;;;;5070235;28;20054;-31
2023/04/18 11:38:27;;;;;;;2.33;2.00;;;21.60;46.00;;;;;;5065215;28;20120;-32
2023/04/18 11:40:55;;;;;;;3.35;2.40;;;21.60;46.10;;;;;;5055022;28;20053;-31
2023/04/18 11:43:23;;;;;;;3.22;2.20;;;;;;;;;;5050278;28;20049;-31
2023/04/18 11:45:55;;;;;;;3.78;2.10;;;21.60;46.10;;;;;;5067889;28;20139;-30
2023/04/18 11:48:21;;;;;;;3.22;2.20;;;22.00;64.80;;;;;;5063964;28;20043;-31
2023/04/18 11:50:48;;;;;;;4.93;2.40;;;21.60;67.30;;;;;;5055454;28;20132;-31
2023/04/18 11:53:15;;;;;;;2.80;2.13;;;;;;;;;;5062116;28;20049;-30
2023/04/18 11:55:42;;;;;;;5.15;2.20;;;;;;;;;;5060511;28;20055;-32
2023/04/18 11:58:11;;;;;;;2.63;2.17;;;;;;;;;;5066896;28;20051;-31
2023/04/18 12:00:40;;;;;;;3.42;2.10;;;21.70;46.20;;;;;;5070470;28;20048;-35
2023/04/18 12:03:08;;;;;;;3.33;2.50;;;;;;;;;;5065215;28;20045;-31
2023/04/18 12:05:36;;;;;;;2.45;1.98;;;;;;;;;;5052723;28;20409;-30
2023/04/18 12:08:06;;;;;;;2.60;2.22;;;;;;;;;;5054828;28;20041;-30
2023/04/18 12:10:34;;;;;;;2.95;2.20;;;21.90;72.20;;;;;;5063900;28;20044;-30
2023/04/18 12:13:01;;;;;;;2.67;1.98;;;;;;;;;;5062087;28;20052;-31
2023/04/18 12:15:30;;;;;;;2.47;2.15;;;21.80;46.20;;;;;;5061845;28;20102;-31
2023/04/18 12:17:58;;;;;;;2.63;2.25;;;;;;;;;;5069950;28;20090;-30
2023/04/18 12:20:25;;;;;;;2.88;2.03;;;21.60;71.60;;;;;;5054956;28;20045;-32
2023/04/18 12:22:53;;;;;;;3.05;2.15;;;;;;;;;;5053450;28;20115;-37
2023/04/18 12:25:26;;;;;;;3.55;2.10;;;;;;;;;;5053476;28;20053;-35
2023/04/18 12:27:57;;;;;;;3.42;2.08;;;;;;;;;;5053304;28;20052;-32
2023/04/18 12:30:24;;;;;;;2.22;1.90;;;;;;;;;;5053549;28;20053;-36
2023/04/18 12:32:53;;;;;;;2.35;1.90;;;21.70;46.20;;;;;;5053010;28;20060;-39
2023/04/18 12:35:20;;;;;;;2.78;2.10;;;;;;;;;;5069525;28;20066;-35
2023/04/18 12:37:47;;;;;;;3.63;1.80;;;21.50;66.20;;;;;;5072704;28;20474;-36
2023/04/18 12:40:14;;;;;;;3.00;2.03;;;21.30;72.50;;;;;;5073107;28;20062;-39
2023/04/18 12:42:41;;;;;;;3.72;2.05;;;;;;;;;;5072657;28;20510;-35
2023/04/18 12:45:09;;;;;;;2.33;1.83;;;21.60;46.20;;;;;;5058985;28;20049;-36
2023/04/18 12:47:37;;;;;;;3.15;2.13;;;;;;;;;;5053017;28;20052;-39
2023/04/18 12:50:06;;;;;;;3.85;1.98;;;;;;;;;;5052984;28;20486;-40
2023/04/18 12:52:33;;;;;;;2.70;2.00;;;;;;;;;;5052713;28;20132;-33
2023/04/18 12:55:00;;;;;;;2.83;2.25;;;21.90;57.50;;;;;;5052980;28;20087;-36
2023/04/18 12:57:26;;;;;;;2.78;1.95;;;21.60;71.80;;;;;;5065045;28;20059;-40
2023/04/18 12:59:54;;;;;;;2.92;1.80;;;;;;;;;;5052829;28;20391;-36
2023/04/18 13:02:20;;;;;;;2.40;2.00;;;21.10;71.60;;;;;;5052535;28;20052;-40
2023/04/18 13:04:47;;;;;;;4.53;1.80;;;;;;;;;;5052741;28;20088;-39
2023/04/18 13:07:16;;;;;;;2.08;1.88;;;;;;;;;;5052564;28;20049;-36
2023/04/18 13:09:43;;;;;;;2.10;1.90;;;;;;;;;;5052659;28;20494;-35
2023/04/18 13:12:10;;;;;;;2.33;1.88;;;;;;;;;;5052400;28;20510;-37
2023/04/18 13:14:37;;;;;;;2.38;1.90;;;;;;;;;;5052775;28;20048;-35
2023/04/18 13:17:04;;;;;;;3.03;2.00;;;;;;;;;;5052534;28;20067;-36
2023/04/18 13:19:32;;;;;;;3.20;1.92;;;;;;;;;;5051314;28;20726;-39
2023/04/18 13:22:00;;;;;;;2.05;1.85;;;;;;;;;;5052604;28;20053;-38
2023/04/18 13:24:28;;;;;;;2.95;1.77;;;;;;;;;;5052236;28;20127;-36
2023/04/18 13:26:55;;;;;;;2.58;1.98;;;21.70;72.40;;;;;;5052187;28;20049;-37
2023/04/18 13:29:21;;;;;;;2.40;1.98;;;20.90;72.60;;;;;;5052470;28;20049;-37
2023/04/18 13:31:48;;;;;;;2.30;1.77;;;;;;;;;;5070095;28;20048;-36
2023/04/18 13:34:15;;;;;;;2.25;1.95;;;;;;;;;;5071708;28;20052;-35
2023/04/18 13:36:43;;;;;;;2.05;1.77;;;;;;;;;;5071775;28;20052;-36
2023/04/18 13:39:10;;;;;;;2.70;1.90;;;;;;;;;;5072053;28;20132;-38
2023/04/18 13:41:38;;;;;;;2.00;1.65;;;;;;;;;;5065238;28;20049;-36
2023/04/18 13:44:07;;;;;;;3.25;1.90;;;21.90;72.60;;;;;;5051799;28;20159;-36
2023/04/18 13:46:34;;;;;;;2.10;1.90;;;;;;;;;;5052021;28;20509;-37
2023/04/18 13:49:01;;;;;;;2.25;1.90;;;;;;;;;;5051811;28;20041;-38
2023/04/18 13:51:27;;;;;;;3.55;1.88;;;21.00;72.20;;;;;;5051995;28;20045;-36
2023/04/18 13:53:54;;;;;;;2.20;1.80;;;20.90;72.60;;;;;;5051548;28;20486;-39
2023/04/18 13:56:21;;;;;;;2.60;1.80;;;;;;;;;;5052345;28;20048;-34
2023/04/18 13:58:49;;;;;;;2.72;1.92;;;21.10;46.80;;;;;;5051367;28;20056;-40
2023/04/18 14:01:17;;;;;;;2.05;1.83;;;;;;;;;;5051747;28;20049;-35
2023/04/18 14:03:45;;;;;;;2.30;1.80;;;21.00;53.90;;;;;;5051332;28;20517;-38
2023/04/18 14:06:12;;;;;;;1.70;1.60;;;21.30;72.80;;;;;;5051969;28;20095;-39
2023/04/18 14:08:39;;;;;;;2.70;1.70;;;;;;;;;;5051669;28;20051;-37
2023/04/18 14:11:06;;;;;;;2.90;1.77;;;22.30;51.60;;;;;;5051171;28;20166;-38
2023/04/18 14:13:33;;;;;;;1.88;1.73;;;21.40;72.80;;;;;;5051248;28;20405;-38
2023/04/18 14:16:01;;;;;;;2.90;1.88;;;;;;;;;;5051545;28;20051;-33
2023/04/18 14:18:28;;;;;;;4.15;1.80;;;;;;;;;;5051235;28;20045;-36
2023/04/18 14:20:55;;;;;;;3.17;1.90;;;;;;;;;;5051411;28;20049;-37
2023/04/18 14:23:22;;;;;;;1.90;1.70;;;21.20;61.60;;;;;;5051418;28;20067;-36
2023/04/18 14:25:49;;;;;;;2.80;1.90;;;21.40;62.60;;;;;;5051153;28;20045;-39
2023/04/18 14:28:19;;;;;;;3.35;1.77;;;;;;;;;;5070804;28;20127;-35
2023/04/18 14:30:46;;;;;;;2.03;1.83;;;;;;;;;;5070822;28;20052;-36
2023/04/18 14:33:15;;;;;;;2.33;1.95;;;;;;;;;;5070982;28;20409;-39
2023/04/18 14:35:42;;;;;;;2.13;1.80;;;21.10;73.20;;;;;;5071269;28;20127;-39
2023/04/18 14:38:10;;;;;;;1.98;1.60;;;;;;;;;;5070722;28;20040;-39
2023/04/18 14:40:37;;;;;;;2.83;1.85;;;;;;;;;;5063759;28;20045;-37
2023/04/18 14:43:03;;;;;;;2.03;1.80;;;21.70;73.30;;;;;;5050527;28;20051;-39
2023/04/18 14:45:32;;;;;;;3.72;2.00;;;;;;;;;;5050849;28;20451;-39
2023/04/18 14:47:59;;;;;;;1.80;1.70;;;;;;;;;;5051026;28;20048;-36
2023/04/18 14:50:28;;;;;;;2.30;1.90;;;;;;;;;;5051125;28;20059;-39
2023/04/18 14:52:55;;;;;;;2.13;1.88;;;;;;;;;;5050582;28;20049;-38
2023/04/18 14:55:22;;;;;;;2.03;1.70;;;;;;;;;;5050386;28;20053;-37
2023/04/18 14:57:49;;;;;;;1.70;1.60;;;;;;;;;;5070595;28;20127;-34
2023/04/18 15:00:16;;;;;;;2.00;1.60;;;;;;;;;;5070985;28;20049;-40
2023/04/18 15:02:43;;;;;;;2.60;2.00;;;;;;;;;;5070449;28;20135;-38
2023/04/18 15:05:11;;;;;;;3.42;1.70;;;;;;;;;;5071004;28;20049;-40
2023/04/18 15:07:39;;;;;;;2.38;1.92;;;20.40;73.20;;;;;;5070463;28;20053;-38
2023/04/18 15:10:07;;;;;;;2.65;2.05;;;;;;;;;;5060343;28;20053;-37
2023/04/18 15:12:34;;;;;;;2.67;2.17;;;20.40;60.30;;;;;;5049670;28;20056;-34
2023/04/18 15:15:01;;;;;;;2.20;1.70;;;;;;;;;;5054110;28;20048;-36